Time;durP1;ratioP1;P1;durP2;ratioP2;P2;SDS_P1;SDS_P2;PMS_P1;PMS_P2;Temp;Humidity;BMP_temperature;BMP_pressure;BME280_temperature;BME280_humidity;BME280_pressure;Samples;Min_cycle;Max_cycle;Signal;HPM_P1;HPM_P2
2023/03/25 00:01:19;;;;;;;5.13;1.40;;;10.10;56.30;;;;;;5086792;28;20242;-88
2023/03/25 00:03:49;;;;;;;4.80;1.30;;;10.00;58.40;;;;;;5090564;28;20202;-87
2023/03/25 00:06:15;;;;;;;3.47;1.40;;;10.00;60.30;;;;;;5089887;28;20178;-87
2023/03/25 00:08:41;;;;;;;4.27;1.30;;;10.10;60.60;;;;;;5093413;28;20677;-88
2023/03/25 00:11:10;;;;;;;2.93;0.90;;;10.10;61.10;;;;;;5114549;28;20176;-88
2023/03/25 00:13:39;;;;;;;3.87;1.60;;;10.20;60.60;;;;;;5116716;28;20178;-88
2023/03/25 00:16:05;;;;;;;3.43;1.30;;;9.90;63.30;;;;;;5116318;28;20184;-86
2023/03/25 00:18:32;;;;;;;6.17;1.20;;;10.00;64.10;;;;;;5109516;28;20206;-88
2023/03/25 00:21:01;;;;;;;5.57;1.33;;;10.00;60.10;;;;;;5100169;28;20655;-87
2023/03/25 00:23:29;;;;;;;4.10;1.37;;;10.10;60.00;;;;;;5098908;28;20171;-88
2023/03/25 00:26:00;;;;;;;4.77;1.70;;;9.90;62.10;;;;;;5096303;28;20171;-89
2023/03/25 00:28:34;;;;;;;5.67;1.40;;;9.90;61.90;;;;;;5095241;28;20274;-86
2023/03/25 00:31:13;;;;;;;6.20;1.40;;;9.90;63.40;;;;;;5094050;28;20262;-88
2023/03/25 00:33:40;;;;;;;3.00;1.60;;;9.90;65.40;;;;;;5095176;28;20174;-87
2023/03/25 00:36:07;;;;;;;5.00;1.13;;;9.90;63.70;;;;;;5092726;28;20178;-87
2023/03/25 00:38:34;;;;;;;4.00;1.40;;;9.90;62.70;;;;;;5093573;28;20654;-88
2023/03/25 00:41:26;;;;;;;5.33;1.50;;;9.90;63.70;;;;;;5096690;28;20176;-87
2023/03/25 00:43:54;;;;;;;4.67;1.50;;;9.90;65.30;;;;;;5093378;28;20175;-86
2023/03/25 00:46:26;;;;;;;3.10;1.57;;;9.90;65.60;;;;;;5109135;28;20167;-87
2023/03/25 00:51:51;;;;;;;4.93;1.57;;;9.90;60.80;;;;;;5098835;28;20266;-88
2023/03/25 00:54:17;;;;;;;5.33;1.53;;;10.00;64.50;;;;;;5097615;28;20246;-88
2023/03/25 00:56:46;;;;;;;5.00;1.77;;;10.10;59.60;;;;;;5102486;28;20156;-86
2023/03/25 00:59:14;;;;;;;6.70;1.97;;;10.00;59.80;;;;;;5111892;28;20155;-89
2023/03/25 01:01:39;;;;;;;4.70;1.83;;;10.00;61.10;;;;;;5115265;28;20152;-88
2023/03/25 01:04:11;;;;;;;6.77;1.43;;;10.00;65.90;;;;;;5116490;28;20180;-87
2023/03/25 01:06:42;;;;;;;5.03;1.93;;;9.80;67.40;;;;;;5100283;28;20624;-87
2023/03/25 01:09:12;;;;;;;6.50;1.70;;;10.00;68.00;;;;;;5094269;28;20207;-86
2023/03/25 01:11:49;;;;;;;4.80;1.50;;;9.90;69.00;;;;;;5097870;28;20254;-89
2023/03/25 01:14:20;;;;;;;6.70;1.77;;;10.10;69.10;;;;;;5097820;28;20177;-90
2023/03/25 01:16:46;;;;;;;3.53;1.63;;;10.10;67.20;;;;;;5100327;28;20178;-87
2023/03/25 01:19:13;;;;;;;6.47;1.60;;;10.00;68.80;;;;;;5105016;28;20175;-91
2023/03/25 01:21:39;;;;;;;6.97;1.77;;;10.10;68.80;;;;;;5103170;28;20202;-89
2023/03/25 01:24:06;;;;;;;9.47;2.03;;;9.90;72.40;;;;;;5107174;28;20171;-90
2023/03/25 01:26:33;;;;;;;7.03;1.83;;;10.00;70.80;;;;;;5106597;28;20180;-89
2023/03/25 01:28:59;;;;;;;5.63;1.47;;;9.90;74.10;;;;;;5106361;28;20218;-89
2023/03/25 01:31:28;;;;;;;8.43;2.23;;;10.00;76.10;;;;;;5109102;28;20164;-86
2023/03/25 01:34:01;;;;;;;3.97;1.47;;;9.80;74.90;;;;;;5100210;28;20635;-86
2023/03/25 01:36:28;;;;;;;6.07;1.83;;;9.80;76.00;;;;;;5106711;28;20227;-85
2023/03/25 01:38:55;;;;;;;4.67;1.53;;;9.90;76.00;;;;;;5111901;28;20176;-88
2023/03/25 01:41:22;;;;;;;7.77;2.10;;;10.00;77.40;;;;;;5114488;28;20168;-86
2023/03/25 01:44:09;;;;;;;6.07;1.83;;;10.00;78.10;;;;;;5110659;28;20547;-90
2023/03/25 01:46:38;;;;;;;4.63;1.57;;;9.90;81.70;;;;;;5100558;28;20654;-90
2023/03/25 01:49:07;;;;;;;9.30;2.13;;;9.80;85.50;;;;;;5100164;28;20203;-88
2023/03/25 01:51:37;;;;;;;3.97;1.67;;;9.70;88.90;;;;;;5098942;28;20170;-88
2023/03/25 01:54:04;;;;;;;5.13;1.73;;;9.70;89.00;;;;;;5100446;28;20183;-89
2023/03/25 01:56:35;;;;;;;5.87;1.80;;;9.60;90.90;;;;;;5090643;28;20171;-86
2023/03/25 01:59:07;;;;;;;6.10;1.80;;;9.70;89.30;;;;;;5118191;28;20159;-88
2023/03/25 02:01:35;;;;;;;5.37;1.53;;;10.00;88.00;;;;;;5092205;28;20200;-87
2023/03/25 02:04:08;;;;;;;6.43;1.40;;;9.70;83.10;;;;;;5081933;28;20258;-87
2023/03/25 02:06:52;;;;;;;7.17;1.80;;;9.60;82.40;;;;;;5084939;28;20182;-90
2023/03/25 02:09:21;;;;;;;6.87;1.63;;;9.70;84.30;;;;;;5087589;28;20211;-86
2023/03/25 02:11:47;;;;;;;6.83;1.77;;;9.60;82.80;;;;;;5085517;28;20190;-88
2023/03/25 02:14:20;;;;;;;7.07;2.27;;;9.60;81.50;;;;;;5083297;28;20161;-91
2023/03/25 02:17:16;;;;;;;7.23;2.20;;;9.60;79.00;;;;;;5079857;28;20191;-88
2023/03/25 02:20:08;;;;;;;5.53;1.23;;;9.70;75.00;;;;;;5077297;28;20176;-90
2023/03/25 02:22:40;;;;;;;4.63;1.50;;;9.90;69.60;;;;;;5076456;28;20271;-91
2023/03/25 02:25:38;;;;;;;6.37;1.37;;;9.70;68.30;;;;;;5077029;28;20176;-86
2023/03/25 02:28:09;;;;;;;4.00;1.50;;;9.80;66.40;;;;;;5042445;28;20184;-88
2023/03/25 02:31:00;;;;;;;5.03;1.43;;;9.80;66.20;;;;;;5079181;28;20176;-89
2023/03/25 02:33:53;;;;;;;6.03;1.60;;;9.70;65.00;;;;;;5079553;28;20187;-88
2023/03/25 02:36:55;;;;;;;5.67;1.57;;;9.70;66.00;;;;;;5081801;28;20588;-88
2023/03/25 02:39:41;;;;;;;6.97;1.60;;;9.70;64.40;;;;;;5079728;28;20164;-89
2023/03/25 02:42:21;;;;;;;4.73;1.17;;;9.60;64.90;;;;;;5077408;28;20187;-89
2023/03/25 02:44:57;;;;;;;7.70;2.03;;;9.60;64.10;;;;;;5079627;28;20512;-89
2023/03/25 02:47:27;;;;;;;3.97;1.43;;;9.70;65.90;;;;;;5080483;28;20172;-90
2023/03/25 02:50:03;;;;;;;6.80;1.83;;;9.90;64.20;;;;;;5080359;28;20204;-88
2023/03/25 02:52:36;;;;;;;6.90;1.53;;;9.60;65.90;;;;;;5088281;28;20191;-89
2023/03/25 02:55:09;;;;;;;8.50;1.80;;;9.60;68.10;;;;;;5077659;28;20651;-89
2023/03/25 02:57:38;;;;;;;5.37;1.80;;;9.60;67.70;;;;;;5077434;28;20801;-90
2023/03/25 03:00:14;;;;;;;5.90;1.50;;;9.50;71.20;;;;;;5077402;28;20683;-89
2023/03/25 03:02:49;;;;;;;5.77;1.80;;;9.50;75.20;;;;;;5076210;28;20224;-89
2023/03/25 03:05:40;;;;;;;5.30;1.40;;;9.50;75.90;;;;;;5077189;28;20172;-88
2023/03/25 03:08:31;;;;;;;7.43;1.80;;;9.50;72.20;;;;;;5090622;28;20176;-88
2023/03/25 03:11:23;;;;;;;5.40;1.30;;;9.50;70.20;;;;;;5097788;28;20169;-86
2023/03/25 03:14:04;;;;;;;6.00;1.80;;;9.50;70.40;;;;;;5083943;28;20180;-88
2023/03/25 03:16:47;;;;;;;7.53;1.70;;;9.60;67.80;;;;;;5077778;28;20168;-91
2023/03/25 03:19:39;;;;;;;10.03;2.10;;;9.70;64.70;;;;;;5075602;28;20183;-88
2023/03/25 03:22:20;;;;;;;8.67;1.53;;;9.60;65.00;;;;;;5084444;28;20184;-88
2023/03/25 03:24:47;;;;;;;11.23;2.50;;;9.60;70.10;;;;;;5083925;28;20164;-89
2023/03/25 03:27:32;;;;;;;7.10;1.60;;;9.60;73.50;;;;;;5077810;28;20215;-88
2023/03/25 03:30:28;;;;;;;10.90;2.87;;;9.80;81.60;;;;;;5075492;28;20219;-90
2023/03/25 03:33:39;;;;;;;6.13;1.40;;;9.60;83.70;;;;;;5081354;28;20188;-83
2023/03/25 03:36:31;;;;;;;8.53;2.00;;;9.50;86.40;;;;;;5077875;28;20230;-86
2023/03/25 03:39:08;;;;;;;5.63;2.03;;;9.30;92.00;;;;;;5072073;28;20200;-88
2023/03/25 03:41:40;;;;;;;7.57;2.07;;;9.20;94.70;;;;;;5080731;28;20168;-88
2023/03/25 03:44:13;;;;;;;7.90;2.10;;;9.30;97.20;;;;;;5082771;28;20321;-89
2023/03/25 03:46:46;;;;;;;9.70;2.17;;;9.20;97.90;;;;;;5081500;28;20171;-89
2023/03/25 03:49:17;;;;;;;10.40;2.23;;;9.30;99.50;;;;;;5087066;28;20279;-85
2023/03/25 03:51:50;;;;;;;5.27;2.10;;;9.40;99.00;;;;;;5095454;28;20157;-88
2023/03/25 03:54:30;;;;;;;6.93;1.80;;;9.40;97.70;;;;;;5098024;28;20168;-86
2023/03/25 03:57:15;;;;;;;9.50;1.87;;;9.20;98.60;;;;;;5094440;28;20164;-88
2023/03/25 04:00:10;;;;;;;10.83;3.00;;;9.20;98.80;;;;;;5087111;28;20639;-89
2023/03/25 04:02:47;;;;;;;8.30;2.67;;;9.10;99.70;;;;;;5076263;28;20635;-89
2023/03/25 04:05:16;;;;;;;7.60;2.07;;;9.20;99.70;;;;;;5074789;28;20259;-90
2023/03/25 04:07:59;;;;;;;9.30;2.43;;;9.20;98.60;;;;;;5075742;28;20697;-89
2023/03/25 04:11:08;;;;;;;9.03;2.47;;;9.20;98.80;;;;;;5074591;28;20675;-88
2023/03/25 04:13:41;;;;;;;13.00;3.07;;;9.20;98.80;;;;;;5036960;28;20176;-89
2023/03/25 04:16:07;;;;;;;8.10;2.97;;;9.20;98.80;;;;;;5036665;28;20165;-90
2023/03/25 04:18:33;;;;;;;9.07;2.43;;;9.20;98.50;;;;;;5055225;28;20261;-88
2023/03/25 04:21:00;;;;;;;10.27;2.23;;;9.20;98.70;;;;;;5073931;28;20598;-89
2023/03/25 04:23:28;;;;;;;7.43;2.00;;;9.20;99.30;;;;;;5075854;28;20176;-91
2023/03/25 04:25:55;;;;;;;6.00;2.20;;;9.20;99.90;;;;;;5074582;28;20297;-88
2023/03/25 04:28:22;;;;;;;9.37;2.43;;;9.20;99.70;;;;;;5074081;28;20267;-88
2023/03/25 04:30:54;;;;;;;9.50;2.27;;;9.20;99.90;;;;;;5076922;28;20219;-89
2023/03/25 04:33:21;;;;;;;10.73;2.13;;;9.20;99.90;;;;;;5075308;28;20184;-89
2023/03/25 04:35:50;;;;;;;10.03;2.13;;;9.20;99.90;;;;;;5080333;28;20228;-89
2023/03/25 04:38:17;;;;;;;14.87;2.93;;;9.10;99.90;;;;;;5081247;28;20266;-88
2023/03/25 04:40:47;;;;;;;8.20;2.20;;;9.10;99.90;;;;;;5089903;28;20196;-87
2023/03/25 04:43:14;;;;;;;10.07;2.43;;;9.20;99.90;;;;;;5086951;28;20169;-89
2023/03/25 04:45:47;;;;;;;9.07;2.23;;;9.20;99.90;;;;;;5075568;28;20176;-90
2023/03/25 04:48:40;;;;;;;10.27;2.47;;;9.20;99.90;;;;;;5081784;28;20718;-86
2023/03/25 04:51:09;;;;;;;8.03;1.83;;;9.30;99.90;;;;;;5083438;28;20188;-89
2023/03/25 04:53:35;;;;;;;8.23;2.50;;;9.40;99.90;;;;;;5084119;28;20234;-86
2023/03/25 04:56:01;;;;;;;9.10;2.30;;;9.30;99.90;;;;;;5088073;28;20255;-88
2023/03/25 04:58:27;;;;;;;8.17;2.27;;;9.30;99.90;;;;;;5077277;28;20257;-89
2023/03/25 05:00:53;;;;;;;5.87;2.10;;;9.30;98.30;;;;;;5082577;28;20262;-88
2023/03/25 05:03:23;;;;;;;10.93;2.37;;;9.20;97.70;;;;;;5059832;28;20241;-88
2023/03/25 05:05:50;;;;;;;9.30;2.23;;;9.20;96.90;;;;;;5077993;28;20636;-89
2023/03/25 05:08:17;;;;;;;7.53;2.30;;;9.20;96.30;;;;;;5074686;28;20180;-89
2023/03/25 05:10:43;;;;;;;9.43;2.40;;;9.20;94.90;;;;;;5078139;28;20180;-88
2023/03/25 05:13:09;;;;;;;5.57;1.90;;;9.20;94.50;;;;;;5090709;28;20168;-86
2023/03/25 05:15:38;;;;;;;4.33;1.90;;;9.30;94.10;;;;;;5082978;28;20226;-88
2023/03/25 05:18:08;;;;;;;7.57;2.30;;;9.30;91.90;;;;;;5094515;28;20236;-90
2023/03/25 05:20:38;;;;;;;9.23;2.13;;;9.30;91.40;;;;;;5089871;28;20203;-90
2023/03/25 05:23:10;;;;;;;12.47;2.53;;;9.30;91.30;;;;;;5097052;28;20236;-88
2023/03/25 05:25:47;;;;;;;6.77;2.20;;;9.40;90.80;;;;;;5095953;28;20184;-87
2023/03/25 05:28:13;;;;;;;7.60;1.70;;;9.40;90.30;;;;;;5078981;28;20274;-90
2023/03/25 05:30:50;;;;;;;6.47;2.20;;;9.40;89.40;;;;;;5082795;28;20157;-87
2023/03/25 05:33:20;;;;;;;9.70;2.13;;;9.40;87.80;;;;;;5076759;28;20210;-90
2023/03/25 05:35:47;;;;;;;6.33;2.17;;;9.40;88.90;;;;;;5062200;28;20173;-88
2023/03/25 05:38:17;;;;;;;8.40;2.23;;;9.40;84.50;;;;;;5075613;28;20168;-88
2023/03/25 05:40:48;;;;;;;8.97;2.53;;;9.50;84.40;;;;;;5073655;28;20263;-92
2023/03/25 05:43:15;;;;;;;12.20;3.40;;;9.50;85.30;;;;;;5090054;28;20169;-86
2023/03/25 05:45:42;;;;;;;7.77;2.27;;;9.50;84.30;;;;;;5094472;28;20175;-86
2023/03/25 05:48:08;;;;;;;9.10;2.80;;;9.50;83.60;;;;;;5080661;28;20247;-90
2023/03/25 05:50:36;;;;;;;9.73;2.87;;;9.50;85.40;;;;;;5085688;28;20164;-88
2023/03/25 05:53:05;;;;;;;7.23;1.93;;;9.60;82.70;;;;;;5096829;28;20180;-87
2023/03/25 05:55:30;;;;;;;9.57;2.27;;;9.60;79.90;;;;;;5097425;28;20204;-90
2023/03/25 05:57:57;;;;;;;8.30;2.50;;;9.50;81.20;;;;;;5099798;28;20184;-89
2023/03/25 06:00:23;;;;;;;9.53;2.37;;;9.50;81.40;;;;;;5093712;28;20164;-90
2023/03/25 06:02:49;;;;;;;14.80;2.73;;;9.40;84.00;;;;;;5085187;28;20195;-91
2023/03/25 06:05:22;;;;;;;8.37;2.10;;;9.40;87.20;;;;;;5090401;28;20181;-90
2023/03/25 06:08:02;;;;;;;12.40;3.50;;;9.40;85.60;;;;;;5078502;28;20255;-89
2023/03/25 06:10:34;;;;;;;9.20;2.37;;;9.50;85.70;;;;;;5077186;28;20200;-90
2023/03/25 06:13:03;;;;;;;8.83;2.67;;;9.40;82.20;;;;;;5083239;28;20172;-89
2023/03/25 06:15:37;;;;;;;10.67;2.93;;;9.30;85.30;;;;;;5078325;28;20195;-91
2023/03/25 06:18:06;;;;;;;8.67;2.50;;;9.40;85.00;;;;;;5084034;28;20167;-89
2023/03/25 06:20:46;;;;;;;10.57;2.50;;;9.40;83.70;;;;;;5091970;28;20209;-91
2023/03/25 06:23:12;;;;;;;10.23;2.63;;;9.40;85.10;;;;;;5084397;28;20177;-90
2023/03/25 06:25:38;;;;;;;11.23;2.63;;;9.60;84.80;;;;;;5077827;28;20172;-90
2023/03/25 06:28:05;;;;;;;10.60;2.30;;;9.40;85.90;;;;;;5077706;28;20183;-91
2023/03/25 06:30:31;;;;;;;9.63;2.40;;;9.50;83.10;;;;;;5077304;28;20215;-89
2023/03/25 06:33:01;;;;;;;8.87;2.10;;;9.50;81.70;;;;;;5078964;28;20226;-90
2023/03/25 06:35:27;;;;;;;8.23;2.40;;;9.50;82.20;;;;;;5080768;28;20178;-89
2023/03/25 06:37:53;;;;;;;8.43;2.07;;;9.60;81.10;;;;;;5098715;28;20145;-88
2023/03/25 06:40:19;;;;;;;11.37;2.80;;;9.50;80.70;;;;;;5098188;28;20187;-86
2023/03/25 06:42:45;;;;;;;8.87;2.10;;;9.70;77.80;;;;;;5099791;28;20224;-89
2023/03/25 06:45:12;;;;;;;9.87;2.30;;;9.40;77.00;;;;;;5091237;28;20176;-88
2023/03/25 06:47:41;;;;;;;14.97;2.70;;;9.40;77.90;;;;;;5087616;28;20173;-89
2023/03/25 06:50:11;;;;;;;9.73;1.97;;;9.70;74.00;;;;;;5083943;28;20204;-95
2023/03/25 06:52:37;;;;;;;12.30;2.73;;;9.70;72.60;;;;;;5080609;28;20667;-87
2023/03/25 06:55:03;;;;;;;8.13;2.13;;;9.50;70.50;;;;;;5085300;28;20176;-88
2023/03/25 06:57:29;;;;;;;10.13;2.10;;;9.50;68.80;;;;;;5083950;28;20172;-90
2023/03/25 06:59:54;;;;;;;8.57;2.30;;;9.60;68.30;;;;;;5095840;28;20211;-89
2023/03/25 07:02:20;;;;;;;10.10;1.90;;;9.60;66.80;;;;;;5076798;28;20184;-88
2023/03/25 07:04:46;;;;;;;10.40;1.97;;;9.80;62.60;;;;;;5077540;28;20184;-90
2023/03/25 07:07:11;;;;;;;11.23;2.83;;;9.80;60.40;;;;;;5083008;28;20373;-87
2023/03/25 07:09:38;;;;;;;9.83;2.80;;;9.70;62.40;;;;;;5077672;28;20269;-87
2023/03/25 07:12:04;;;;;;;8.27;2.07;;;9.80;60.50;;;;;;5076234;28;20172;-91
2023/03/25 07:14:30;;;;;;;10.53;2.27;;;9.80;59.40;;;;;;5060419;28;20180;-90
2023/03/25 07:16:56;;;;;;;12.83;2.63;;;9.80;58.70;;;;;;5077414;28;20172;-89
2023/03/25 07:19:22;;;;;;;9.70;2.67;;;9.90;58.50;;;;;;5079781;28;20188;-88
2023/03/25 07:21:47;;;;;;;10.83;3.13;;;10.00;57.90;;;;;;5072551;28;20192;-89
2023/03/25 07:24:13;;;;;;;13.27;2.63;;;10.10;58.60;;;;;;5080517;28;20180;-88
2023/03/25 07:26:38;;;;;;;10.20;2.30;;;10.00;57.30;;;;;;5077456;28;20172;-90
2023/03/25 07:29:06;;;;;;;8.73;2.80;;;10.00;58.10;;;;;;5086000;28;20223;-92
2023/03/25 07:31:32;;;;;;;18.10;2.80;;;9.80;59.30;;;;;;5082157;28;20176;-91
2023/03/25 07:33:59;;;;;;;11.23;3.20;;;10.20;58.30;;;;;;5097792;28;20164;-89
2023/03/25 07:36:25;;;;;;;16.57;3.30;;;10.30;54.50;;;;;;5096928;28;20222;-84
2023/03/25 07:38:52;;;;;;;15.00;2.80;;;10.30;54.40;;;;;;5110182;28;20163;-86
2023/03/25 07:41:18;;;;;;;15.40;3.43;;;10.30;54.00;;;;;;5105393;28;20167;-87
2023/03/25 07:43:44;;;;;;;14.60;3.17;;;10.20;52.70;;;;;;5108226;28;20185;-85
2023/03/25 07:46:12;;;;;;;11.77;2.70;;;10.30;52.90;;;;;;5112594;28;20175;-87
2023/03/25 07:48:38;;;;;;;10.97;2.63;;;10.30;54.20;;;;;;5105036;28;20199;-86
2023/03/25 07:51:04;;;;;;;10.90;2.70;;;10.30;51.70;;;;;;5105066;28;20240;-88
2023/03/25 07:53:30;;;;;;;14.50;3.20;;;10.20;52.30;;;;;;5103901;28;20304;-86
2023/03/25 07:55:55;;;;;;;9.83;2.70;;;10.30;56.40;;;;;;5103199;28;20214;-86
2023/03/25 07:58:21;;;;;;;15.57;3.30;;;10.20;56.70;;;;;;5100107;28;20171;-84
2023/03/25 08:00:47;;;;;;;14.10;3.53;;;10.30;56.20;;;;;;5097416;28;20175;-87
2023/03/25 08:03:13;;;;;;;12.90;2.57;;;10.20;57.60;;;;;;5095385;28;20271;-88
2023/03/25 08:05:47;;;;;;;19.13;3.23;;;10.10;54.40;;;;;;5096587;28;20193;-89
2023/03/25 08:08:14;;;;;;;14.73;3.47;;;10.10;57.00;;;;;;5096699;28;20168;-89
2023/03/25 08:10:46;;;;;;;14.07;3.20;;;10.20;59.50;;;;;;5095045;28;20172;-88
2023/03/25 08:13:12;;;;;;;14.33;3.70;;;10.20;62.40;;;;;;5098717;28;20171;-86
2023/03/25 08:15:39;;;;;;;12.67;2.77;;;10.10;64.50;;;;;;5094817;28;20262;-86
2023/03/25 08:18:05;;;;;;;10.27;3.00;;;10.20;67.70;;;;;;5093657;28;20171;-88
2023/03/25 08:20:32;;;;;;;12.70;3.60;;;10.20;63.10;;;;;;5094562;28;20252;-87
2023/03/25 08:22:58;;;;;;;15.83;3.27;;;10.30;62.60;;;;;;5095873;28;20168;-86
2023/03/25 08:25:24;;;;;;;13.53;3.23;;;10.40;61.20;;;;;;5095696;28;20168;-86
2023/03/25 08:27:51;;;;;;;17.97;3.70;;;10.50;61.90;;;;;;5094641;28;20262;-87
2023/03/25 08:30:16;;;;;;;15.30;3.50;;;10.50;60.60;;;;;;5095241;28;20273;-86
2023/03/25 08:32:45;;;;;;;14.67;3.43;;;10.50;60.10;;;;;;5094529;28;20176;-86
2023/03/25 08:35:12;;;;;;;16.50;3.67;;;10.50;57.80;;;;;;5093609;28;20184;-87
2023/03/25 08:37:38;;;;;;;15.07;3.90;;;10.80;52.10;;;;;;5092322;28;20172;-86
2023/03/25 08:40:07;;;;;;;12.67;3.13;;;10.50;48.30;;;;;;5095092;28;20172;-90
2023/03/25 08:42:33;;;;;;;13.07;3.20;;;10.60;50.60;;;;;;5095533;28;20171;-91
2023/03/25 08:44:59;;;;;;;14.47;3.20;;;10.80;51.00;;;;;;5094226;28;20282;-87
2023/03/25 08:47:25;;;;;;;13.97;3.33;;;10.90;41.10;;;;;;5094388;28;20200;-87
2023/03/25 08:49:50;;;;;;;14.73;2.90;;;10.90;39.30;;;;;;5095634;28;20207;-94
2023/03/25 08:52:16;;;;;;;11.80;3.10;;;11.10;39.70;;;;;;5098419;28;20186;-87
2023/03/25 08:54:43;;;;;;;14.67;3.40;;;11.00;38.80;;;;;;5097923;28;20187;-87
2023/03/25 08:57:08;;;;;;;15.33;3.87;;;11.00;36.80;;;;;;5094442;28;20221;-88
2023/03/25 08:59:37;;;;;;;17.97;4.17;;;10.90;39.80;;;;;;5096831;28;20176;-87
2023/03/25 09:02:03;;;;;;;12.53;3.53;;;10.70;40.50;;;;;;5088360;28;20171;-84
2023/03/25 09:04:29;;;;;;;12.87;3.33;;;11.10;41.30;;;;;;5093435;28;20168;-91
2023/03/25 09:06:55;;;;;;;14.90;3.57;;;10.90;41.80;;;;;;5070947;28;20222;-89
2023/03/25 09:09:22;;;;;;;15.90;3.30;;;11.10;42.40;;;;;;5089125;28;20752;-85
2023/03/25 09:11:48;;;;;;;14.90;3.47;;;11.10;40.40;;;;;;5095358;28;20164;-87
2023/03/25 09:14:14;;;;;;;16.67;3.90;;;11.10;55.10;;;;;;5101691;28;20180;-85
2023/03/25 09:16:40;;;;;;;11.93;3.20;;;10.80;63.30;;;;;;5084679;28;20229;-87
2023/03/25 09:19:06;;;;;;;12.70;3.30;;;10.60;70.50;;;;;;5093092;28;20155;-86
2023/03/25 09:21:32;;;;;;;15.27;3.47;;;10.50;77.30;;;;;;5078373;28;20318;-84
2023/03/25 09:23:58;;;;;;;13.13;3.43;;;10.60;76.70;;;;;;5094469;28;20176;-83
2023/03/25 09:26:25;;;;;;;17.03;3.80;;;10.70;74.90;;;;;;5113652;28;20183;-85
2023/03/25 09:28:55;;;;;;;14.37;3.50;;;10.80;67.50;;;;;;5113542;28;20251;-83
2023/03/25 09:31:22;;;;;;;16.87;3.40;;;10.80;64.00;;;;;;5074239;28;20180;-85
2023/03/25 09:33:48;;;;;;;17.13;4.10;;;11.00;60.50;;;;;;5097014;28;20158;-87
2023/03/25 09:36:14;;;;;;;16.60;4.37;;;10.90;57.10;;;;;;5073283;28;20263;-86
2023/03/25 09:38:40;;;;;;;14.63;3.27;;;11.00;60.70;;;;;;5080356;28;20654;-87
2023/03/25 09:41:32;;;;;;;16.67;4.07;;;10.90;58.20;;;;;;5078989;28;20192;-85
2023/03/25 09:44:05;;;;;;;16.93;4.03;;;10.90;55.90;;;;;;5082613;28;20176;-86
2023/03/25 09:46:32;;;;;;;13.57;3.37;;;11.00;56.10;;;;;;5093873;28;20173;-85
2023/03/25 09:48:59;;;;;;;14.97;3.83;;;11.20;50.30;;;;;;5083028;28;20208;-88
2023/03/25 09:51:32;;;;;;;12.30;3.73;;;11.30;45.80;;;;;;5085527;28;20177;-85
2023/03/25 09:54:31;;;;;;;12.03;3.30;;;11.40;41.00;;;;;;5095098;28;20191;-85
2023/03/25 09:57:05;;;;;;;11.03;3.40;;;11.40;35.20;;;;;;5085128;28;20176;-85
2023/03/25 09:59:42;;;;;;;14.67;3.40;;;11.30;33.50;;;;;;5075200;28;20184;-85
2023/03/25 10:02:25;;;;;;;10.93;4.00;;;11.30;36.50;;;;;;5100168;28;20174;-86
2023/03/25 10:05:18;;;;;;;20.20;4.37;;;11.20;41.70;;;;;;5100681;28;20255;-83
2023/03/25 10:08:01;;;;;;;22.17;5.37;;;11.30;45.50;;;;;;5111251;28;20189;-93
2023/03/25 10:10:50;;;;;;;15.17;3.90;;;11.40;48.00;;;;;;5110046;28;20211;-91
2023/03/25 10:13:47;;;;;;;12.67;3.67;;;11.40;46.90;;;;;;5109872;28;20193;-91
2023/03/25 10:16:35;;;;;;;14.70;3.90;;;11.50;47.20;;;;;;5113634;28;20266;-90
2023/03/25 10:20:00;;;;;;;15.27;4.03;;;11.60;49.80;;;;;;5107259;28;20176;-90
2023/03/25 10:22:40;;;;;;;19.17;4.17;;;11.70;38.90;;;;;;5064826;28;20637;-91
2023/03/25 10:25:14;;;;;;;16.27;4.03;;;11.90;30.70;;;;;;5068994;28;20199;-83
2023/03/25 10:28:04;;;;;;;17.63;4.20;;;11.90;14.90;;;;;;5094269;28;20168;-86
2023/03/25 10:30:45;;;;;;;17.43;4.77;;;12.10;12.50;;;;;;5066447;28;20216;-89
2023/03/25 10:33:35;;;;;;;16.07;3.90;;;12.20;11.70;;;;;;5067004;28;20581;-90
2023/03/25 10:36:05;;;;;;;15.93;4.20;;;12.40;78.90;;;;;;5097860;28;20210;-84
2023/03/25 10:38:35;;;;;;;14.77;3.73;;;12.50;99.90;;;;;;5114638;28;20206;-85
2023/03/25 10:41:29;;;;;;;13.47;3.57;;;12.70;99.90;;;;;;5108838;28;20172;-90
2023/03/25 10:43:56;;;;;;;17.50;3.80;;;12.70;99.90;;;;;;5100886;28;20190;-90
2023/03/25 10:47:10;;;;;;;14.60;3.33;;;12.80;99.90;;;;;;5115346;28;20171;-86
2023/03/25 10:49:38;;;;;;;15.73;3.30;;;13.00;99.90;;;;;;5097108;28;20359;-86
2023/03/25 10:52:05;;;;;;;13.67;3.33;;;13.30;99.90;;;;;;5080345;28;20284;-85
2023/03/25 10:54:38;;;;;;;9.57;2.90;;;13.30;99.90;;;;;;5094223;28;20184;-88
2023/03/25 10:57:17;;;;;;;14.77;3.10;;;13.00;99.90;;;;;;5090219;28;20168;-86
2023/03/25 11:00:23;;;;;;;14.77;3.40;;;13.10;99.90;;;;;;5089502;28;20217;-89
2023/03/25 11:02:54;;;;;;;12.10;2.93;;;13.20;99.90;;;;;;5109922;28;20581;-84
2023/03/25 11:05:26;;;;;;;13.87;3.07;;;13.20;99.90;;;;;;5111261;28;20193;-85
2023/03/25 11:07:54;;;;;;;10.47;2.63;;;13.20;99.90;;;;;;5111799;28;20188;-87
2023/03/25 11:10:27;;;;;;;14.00;3.43;;;13.10;99.90;;;;;;5090263;28;20222;-89
2023/03/25 11:13:02;;;;;;;10.27;3.03;;;13.10;99.90;;;;;;5108363;28;20198;-89
2023/03/25 11:15:34;;;;;;;12.60;3.33;;;13.00;99.90;;;;;;5093081;28;20169;-92
2023/03/25 11:18:25;;;;;;;13.10;4.27;;;12.80;99.90;;;;;;5086888;28;20275;-89
2023/03/25 11:21:00;;;;;;;13.53;4.00;;;12.80;99.90;;;;;;5106990;28;20167;-89
2023/03/25 11:23:34;;;;;;;12.23;4.00;;;12.60;99.90;;;;;;5109223;28;20204;-89
2023/03/25 11:26:22;;;;;;;16.97;6.27;;;12.50;99.90;;;;;;5110692;28;20179;-84
2023/03/25 11:29:00;;;;;;;9.77;3.20;;;12.50;99.90;;;;;;5114290;28;20283;-86
2023/03/25 11:31:29;;;;;;;9.87;2.97;;;12.30;99.90;;;;;;5099578;28;20190;-90
2023/03/25 11:34:17;;;;;;;12.30;3.20;;;12.30;99.90;;;;;;5095139;28;20178;-85
2023/03/25 11:36:58;;;;;;;13.97;3.10;;;12.30;99.90;;;;;;5109378;28;20190;-85
2023/03/25 11:39:32;;;;;;;12.57;2.87;;;12.00;99.90;;;;;;5105006;28;20164;-88
2023/03/25 11:42:08;;;;;;;9.67;2.23;;;11.60;99.90;;;;;;5114514;28;20210;-92
2023/03/25 11:44:35;;;;;;;10.60;2.53;;;11.20;99.90;;;;;;5102934;28;20258;-89
2023/03/25 11:47:04;;;;;;;12.30;2.57;;;10.80;99.90;;;;;;5099530;28;20174;-92
2023/03/25 11:49:39;;;;;;;10.57;3.00;;;10.70;51.70;;;;;;5114868;28;20248;-87
2023/03/25 11:52:20;;;;;;;15.70;4.00;;;10.70;57.30;;;;;;5110356;28;20194;-91
2023/03/25 11:54:51;;;;;;;11.67;2.63;;;10.70;67.40;;;;;;5114066;28;20172;-88
2023/03/25 11:57:23;;;;;;;9.73;4.13;;;10.60;71.10;;;;;;5109665;28;20250;-90
2023/03/25 12:00:00;;;;;;;14.40;3.60;;;10.60;80.60;;;;;;5106603;28;20525;-88
2023/03/25 12:02:30;;;;;;;15.33;3.87;;;10.50;85.10;;;;;;5099060;28;20168;-89
2023/03/25 12:05:14;;;;;;;12.70;3.37;;;10.50;82.30;;;;;;5084977;28;20179;-93
2023/03/25 12:07:50;;;;;;;11.20;2.77;;;10.50;87.10;;;;;;5090924;28;20171;-92
2023/03/25 12:10:33;;;;;;;10.80;2.83;;;10.50;84.80;;;;;;5082551;28;20756;-94
2023/03/25 12:13:28;;;;;;;13.07;2.97;;;10.60;81.90;;;;;;5103548;28;20176;-84
2023/03/25 12:16:18;;;;;;;12.50;3.57;;;10.70;82.90;;;;;;5107351;28;20171;-85
2023/03/25 12:19:21;;;;;;;13.63;3.23;;;10.70;77.10;;;;;;5117697;28;20177;-85
2023/03/25 12:22:02;;;;;;;14.90;2.77;;;10.90;78.00;;;;;;5116562;28;20187;-82
2023/03/25 12:24:41;;;;;;;13.87;3.30;;;11.00;80.90;;;;;;5091313;28;20185;-89
2023/03/25 12:27:23;;;;;;;12.93;3.20;;;11.10;76.30;;;;;;5090107;28;20176;-93
2023/03/25 12:30:33;;;;;;;12.67;3.20;;;11.20;72.70;;;;;;5086061;28;20207;-87
2023/03/25 12:33:27;;;;;;;11.40;3.50;;;11.20;66.00;;;;;;5098921;28;20224;-88
2023/03/25 12:36:03;;;;;;;12.70;3.03;;;11.20;64.00;;;;;;5105045;28;20196;-89
2023/03/25 12:39:00;;;;;;;11.33;2.77;;;11.20;64.20;;;;;;5116536;28;20167;-89
2023/03/25 12:42:02;;;;;;;11.70;3.10;;;11.10;69.60;;;;;;5115361;28;20536;-85
2023/03/25 12:45:05;;;;;;;17.50;3.33;;;11.00;61.50;;;;;;5088207;28;20179;-87
2023/03/25 12:47:50;;;;;;;12.03;2.90;;;10.90;73.10;;;;;;5099141;28;20643;-92
2023/03/25 12:50:19;;;;;;;11.93;3.40;;;10.90;79.80;;;;;;5108453;28;20210;-92
2023/03/25 12:53:22;;;;;;;15.23;3.23;;;11.00;83.10;;;;;;5105148;28;20213;-89
2023/03/25 12:56:04;;;;;;;16.80;3.40;;;11.00;77.50;;;;;;5105666;28;20263;-86
2023/03/25 12:58:35;;;;;;;14.00;3.43;;;11.20;70.40;;;;;;5107651;28;20217;-90
2023/03/25 13:01:30;;;;;;;16.87;4.20;;;11.40;65.60;;;;;;5106380;28;20596;-87
2023/03/25 13:04:15;;;;;;;12.40;3.17;;;11.40;58.40;;;;;;5104118;28;20167;-88
2023/03/25 13:06:48;;;;;;;14.47;3.43;;;11.60;58.80;;;;;;5106650;28;20173;-88
2023/03/25 13:09:45;;;;;;;15.07;3.93;;;11.60;62.70;;;;;;5108793;28;20216;-89
2023/03/25 13:12:33;;;;;;;14.70;3.37;;;11.40;51.30;;;;;;5109488;28;20354;-86
2023/03/25 13:15:24;;;;;;;12.93;3.03;;;11.40;50.00;;;;;;5107956;28;20175;-87
2023/03/25 13:18:03;;;;;;;12.83;2.57;;;11.50;51.50;;;;;;5110006;28;20183;-87
2023/03/25 13:20:56;;;;;;;12.37;3.50;;;11.80;44.60;;;;;;5115896;28;20254;-85
2023/03/25 13:23:26;;;;;;;11.57;2.83;;;12.00;35.20;;;;;;5110062;28;20163;-86